Time;durP1;ratioP1;P1;durP2;ratioP2;P2;SDS_P1;SDS_P2;PMS_P1;PMS_P2;Temp;Humidity;BMP_temperature;BMP_pressure;BME280_temperature;BME280_humidity;BME280_pressure;Samples;Min_cycle;Max_cycle;Signal;HPM_P1;HPM_P2
2022/05/17 01:40:36;;;;;;;13.90;4.80;;;;;;;15.68;56.86;100540.77;125433;1115;102644;-77
2022/05/17 02:28:46;;;;;;;14.27;5.03;;;;;;;15.11;58.61;100531.87;125574;1112;120993;-76
2022/05/17 04:14:51;;;;;;;16.33;5.53;;;;;;;15.14;61.89;100562.77;126258;1105;101595;-76
2022/05/17 04:17:29;;;;;;;13.97;5.27;;;;;;;15.20;61.82;100554.95;126191;1105;101595;-77
2022/05/17 04:20:40;;;;;;;14.00;5.47;;;;;;;15.28;61.88;100550.68;125984;1105;102014;-78
2022/05/17 04:23:24;;;;;;;11.97;5.23;;;;;;;15.37;61.98;100550.84;125622;1103;106973;-77
2022/05/17 04:26:52;;;;;;;17.43;5.40;;;;;;;15.52;60.93;100550.22;125786;1106;104197;-77
2022/05/17 04:33:42;;;;;;;16.10;6.40;;;;;;;15.72;60.56;100539.05;125801;1106;101994;-77
2022/05/17 04:36:30;;;;;;;16.93;7.17;;;;;;;15.77;61.42;100543.59;125736;1102;102146;-77
2022/05/17 04:39:17;;;;;;;17.47;6.50;;;;;;;15.86;60.77;100541.94;125790;1102;102758;-77
2022/05/17 04:42:19;;;;;;;13.87;5.87;;;;;;;15.94;60.58;100537.63;125866;1102;104073;-75
2022/05/17 04:45:16;;;;;;;14.23;5.30;;;;;;;16.03;60.26;100537.77;125876;1102;104255;-77
2022/05/17 04:48:15;;;;;;;18.60;5.87;;;;;;;16.10;60.94;100544.94;125781;1102;108419;-77
2022/05/17 04:50:51;;;;;;;14.20;5.30;;;;;;;16.17;60.05;100536.22;125785;1102;102092;-77
2022/05/17 04:53:52;;;;;;;17.27;5.20;;;;;;;16.24;60.72;100531.89;125706;1105;104294;-77
2022/05/17 05:00:27;;;;;;;14.53;5.30;;;;;;;16.40;59.78;100532.96;125747;1106;112493;-77
2022/05/17 05:03:03;;;;;;;13.77;4.80;;;;;;;16.51;59.75;100536.63;125493;1106;102707;-77
2022/05/17 05:05:41;;;;;;;13.30;4.90;;;;;;;16.59;58.95;100541.13;125427;1105;101866;-77
2022/05/17 05:12:17;;;;;;;13.60;4.97;;;;;;;16.69;59.36;100530.66;125658;1105;104230;-77
2022/05/17 05:15:48;;;;;;;12.13;4.80;;;;;;;16.76;58.57;100526.31;125755;1106;102727;-77
2022/05/17 05:19:01;;;;;;;15.97;4.80;;;;;;;16.87;58.86;100537.06;125500;1105;104178;-77
2022/05/17 05:21:46;;;;;;;15.40;4.77;;;;;;;16.93;58.52;100526.52;125714;1106;104080;-77
2022/05/17 05:25:11;;;;;;;15.07;4.80;;;;;;;16.99;58.26;100537.19;125907;1105;101860;-78
2022/05/17 05:32:30;;;;;;;;;;;;;;;;;;;;;
2022/05/17 05:35:26;;;;;;;11.30;4.37;;;;;;;17.21;57.56;100535.63;125220;1106;110048;-77
2022/05/17 05:44:35;;;;;;;16.13;5.07;;;;;;;17.47;56.98;100542.02;125865;1102;101842;-76
2022/05/17 05:47:16;;;;;;;13.90;5.90;;;;;;;17.55;56.95;100533.26;125448;1105;102404;-76
2022/05/17 06:04:08;;;;;;;12.35;4.42;;;;;;;18.20;56.19;100538.11;125269;1105;102302;-76
2022/05/17 06:06:59;;;;;;;13.00;4.13;;;;;;;18.30;55.82;100537.28;125010;1106;102960;-76
2022/05/17 06:09:36;;;;;;;14.47;4.67;;;;;;;18.36;55.34;100542.63;125042;1109;101837;-78
2022/05/17 06:19:09;;;;;;;13.40;4.30;;;;;;;18.68;54.14;100540.09;124701;1112;104207;-77
2022/05/17 06:21:42;;;;;;;14.10;4.00;;;;;;;18.74;54.02;100538.33;124564;1111;102589;-76
2022/05/17 06:24:19;;;;;;;16.45;4.17;;;;;;;18.78;53.98;100534.81;124314;1109;104189;-77
2022/05/17 06:30:03;;;;;;;;;;;;;;;;;;;;;
2022/05/17 06:33:09;;;;;;;14.17;4.00;;;;;;;19.00;52.84;100515.37;124790;1108;102437;-77
2022/05/17 06:38:51;;;;;;;11.47;3.90;;;;;;;19.26;52.74;100525.16;125186;1109;104251;-78
2022/05/17 06:47:01;;;;;;;12.93;4.00;;;;;;;19.71;51.35;100518.04;124794;1106;104313;-77
2022/05/17 06:49:42;;;;;;;13.03;3.90;;;;;;;19.83;52.29;100518.93;124929;1105;103494;-78
2022/05/17 06:52:20;;;;;;;9.43;3.57;;;;;;;19.95;51.25;100513.58;125091;1102;104240;-77
2022/05/17 06:58:23;;;;;;;9.37;3.53;;;;;;;20.28;51.06;100514.36;124984;1102;104498;-76
2022/05/17 07:01:27;;;;;;;14.87;3.80;;;;;;;20.35;50.15;100502.80;124979;1102;104192;-78
2022/05/17 07:04:02;;;;;;;8.03;3.37;;;;;;;20.55;50.50;100510.66;124895;1102;108186;-76
2022/05/17 07:07:03;;;;;;;9.77;3.30;;;;;;;20.67;49.78;100515.09;124985;1102;102094;-77
2022/05/17 07:09:40;;;;;;;7.43;3.00;;;;;;;20.80;47.48;100508.80;125019;1102;104186;-77
2022/05/17 07:15:59;;;;;;;;;;;;;;;;;;;;;
2022/05/17 07:19:17;;;;;;;11.63;3.47;;;;;;;21.14;45.10;100515.67;124982;1102;104226;-77
2022/05/17 07:22:43;;;;;;;7.80;3.20;;;;;;;21.28;45.93;100510.23;125192;1102;104291;-78
2022/05/17 07:25:35;;;;;;;8.97;3.00;;;;;;;21.43;44.25;100502.09;125053;1102;104329;-77
2022/05/17 07:28:22;;;;;;;6.60;2.60;;;;;;;21.63;43.35;100507.28;125133;1101;104297;-78
2022/05/17 07:31:02;;;;;;;9.63;3.00;;;;;;;21.80;43.65;100509.78;125037;1102;104239;-79
2022/05/17 07:33:44;;;;;;;5.37;2.43;;;;;;;22.03;43.97;100506.87;125068;1102;104409;-78
2022/05/17 07:36:44;;;;;;;8.27;3.20;;;;;;;22.27;44.70;100504.80;124962;1102;104185;-78
2022/05/17 07:42:24;;;;;;;7.60;2.80;;;;;;;22.80;43.29;100499.66;125046;1102;102330;-78
2022/05/17 07:45:05;;;;;;;9.73;2.97;;;;;;;23.03;42.13;100501.08;124912;1105;118450;-77
2022/05/17 07:47:49;;;;;;;6.13;2.40;;;;;;;22.96;42.06;100489.60;125231;1102;102764;-78
2022/05/17 07:53:41;;;;;;;6.27;2.90;;;;;;;23.18;40.71;100490.17;124845;1105;104406;-76
2022/05/17 07:56:39;;;;;;;11.53;2.77;;;;;;;23.38;40.98;100487.16;124999;1102;104302;-78
2022/05/17 07:59:15;;;;;;;9.23;2.80;;;;;;;23.63;40.95;100489.41;124940;1102;104328;-77
2022/05/17 08:05:31;;;;;;;6.90;2.50;;;;;;;23.98;40.28;100483.41;124955;1106;104302;-77
2022/05/17 08:08:18;;;;;;;8.23;2.57;;;;;;;24.12;39.12;100485.81;124903;1105;104229;-77
2022/05/17 08:11:05;;;;;;;11.63;2.80;;;;;;;24.19;39.05;100476.70;124977;1105;102161;-79
2022/05/17 08:13:37;;;;;;;9.20;2.87;;;;;;;24.16;38.93;100476.77;124731;1106;104408;-77
2022/05/17 08:16:15;;;;;;;7.45;2.50;;;;;;;24.17;38.77;100474.99;124937;1102;104165;-78
2022/05/17 08:18:50;;;;;;;12.50;2.53;;;;;;;24.16;38.28;100476.77;124960;1105;103311;-78
2022/05/17 08:21:22;;;;;;;8.15;2.58;;;;;;;24.23;38.13;100480.19;125086;1105;104194;-78
2022/05/17 08:27:31;;;;;;;4.13;2.43;;;;;;;24.26;37.50;100464.05;125244;1102;104317;-78
2022/05/17 08:27:49;;;;;;;6.00;2.23;;;;;;;24.50;36.88;100469.81;125133;1102;117881;-78
2022/05/17 08:30:58;;;;;;;6.30;2.45;;;;;;;24.63;36.43;100460.58;125051;1102;102796;-81
2022/05/17 08:33:30;;;;;;;;;;;;;;;24.87;35.18;100456.45;125148;1102;104421;-78
2022/05/17 08:36:22;;;;;;;10.03;2.43;;;;;;;25.10;35.60;100461.26;125028;1103;104200;-78
2022/05/17 08:42:55;;;;;;;7.03;2.30;;;;;;;25.68;35.25;100449.94;125700;1099;102899;-78
2022/05/17 08:52:14;;;;;;;5.30;2.70;;;;;;;26.28;32.72;100447.34;124930;1105;104402;-77
2022/05/17 08:54:57;;;;;;;8.00;2.70;;;;;;;26.30;32.91;100442.79;125036;1102;102565;-77
2022/05/17 08:57:43;;;;;;;5.30;2.50;;;;;;;26.26;31.47;100446.52;124984;1102;103515;-77
2022/05/17 09:00:31;;;;;;;4.33;2.70;;;;;;;26.08;31.76;100424.61;125059;1105;104387;-76
2022/05/17 09:03:12;;;;;;;7.63;2.60;;;;;;;26.12;31.21;100439.73;125040;1102;104178;-77
2022/05/17 09:05:58;;;;;;;9.57;2.90;;;;;;;25.84;30.86;100428.88;125181;1105;102219;-78
2022/05/17 09:08:42;;;;;;;8.03;2.83;;;;;;;25.62;30.36;100433.98;125205;1102;104383;-77
2022/05/17 09:11:29;;;;;;;6.33;2.47;;;;;;;25.60;30.34;100438.49;124977;1101;104337;-78
2022/05/17 09:14:17;;;;;;;4.83;2.50;;;;;;;25.57;30.25;100436.80;124961;1105;104202;-78
2022/05/17 09:17:08;;;;;;;;;;;;;;;;;;;;;
2022/05/17 09:19:59;;;;;;;7.13;2.70;;;;;;;25.62;29.39;100433.98;125222;1098;104650;-76
2022/05/17 09:22:34;;;;;;;7.85;2.72;;;;;;;25.80;30.06;100428.09;124487;1099;104191;-76
2022/05/17 09:25:20;;;;;;;7.47;2.20;;;;;;;25.98;29.65;100415.94;124419;1099;104250;-77
2022/05/17 09:27:54;;;;;;;7.33;2.77;;;;;;;26.17;29.67;100421.64;124361;1099;104264;-79
2022/05/17 09:30:39;;;;;;;7.40;2.67;;;;;;;26.06;29.17;100422.91;124343;1099;104230;-78
2022/05/17 09:33:15;;;;;;;5.40;2.60;;;;;;;26.16;29.54;100425.28;124414;1099;104374;-76
2022/05/17 09:35:57;;;;;;;11.10;2.90;;;;;;;26.24;29.39;100429.52;124476;1100;104310;-77
2022/05/17 09:38:33;;;;;;;9.60;2.63;;;;;;;26.23;29.12;100430.48;124484;1102;102757;-78
2022/05/17 09:41:12;;;;;;;9.30;2.70;;;;;;;26.16;29.49;100424.38;125157;1102;102374;-77
2022/05/17 09:43:59;;;;;;;9.70;2.80;;;;;;;26.21;29.21;100419.77;124690;1099;104204;-78
2022/05/17 09:46:34;;;;;;;7.73;2.40;;;;;;;26.24;28.94;100430.42;125361;1099;102821;-78
2022/05/17 09:52:45;;;;;;;10.57;3.10;;;;;;;26.44;29.13;100412.77;125403;1099;104163;-77
2022/05/17 09:55:28;;;;;;;5.57;2.57;;;;;;;26.68;28.69;100421.92;124683;1099;104242;-78
2022/05/17 09:58:06;;;;;;;5.97;2.50;;;;;;;26.72;28.17;100413.70;125323;1099;104226;-80
2022/05/17 10:01:03;;;;;;;;;;;;;;;;;;;;;
2022/05/17 10:04:06;;;;;;;5.97;2.67;;;;;;;26.95;29.03;100403.97;125181;1100;102579;-79
2022/05/17 10:06:55;;;;;;;6.47;2.70;;;;;;;26.88;28.34;100405.99;125301;1100;104239;-78
2022/05/17 10:09:33;;;;;;;4.23;2.40;;;;;;;26.73;28.30;100403.80;125171;1099;104408;-78
2022/05/17 10:12:18;;;;;;;6.50;2.93;;;;;;;26.62;28.46;100401.43;125399;1102;104236;-79
2022/05/17 10:14:58;;;;;;;9.00;2.97;;;;;;;26.55;28.20;100400.75;125443;1100;102658;-78
2022/05/17 10:21:13;;;;;;;4.73;2.60;;;;;;;26.30;28.52;100389.00;125543;1102;102564;-80
2022/05/17 10:24:31;;;;;;;5.10;2.70;;;;;;;26.24;28.51;100383.80;125427;1102;104293;-79
2022/05/17 10:27:20;;;;;;;8.10;2.58;;;;;;;26.22;28.77;100375.79;125443;1102;102235;-80
2022/05/17 10:30:11;;;;;;;8.73;3.00;;;;;;;26.34;28.86;100374.53;125411;1102;104121;-79
2022/05/17 10:33:12;;;;;;;5.47;2.50;;;;;;;26.33;28.60;100351.24;125397;1103;102351;-81
2022/05/17 10:36:29;;;;;;;10.40;2.63;;;;;;;26.54;28.33;100350.55;125543;1102;103088;-81
2022/05/17 10:39:37;;;;;;;8.63;2.50;;;;;;;26.58;27.74;100348.63;125494;1099;102515;-78
2022/05/17 10:42:09;;;;;;;8.57;4.63;;;;;;;26.62;28.59;100341.36;124946;1099;101924;-77
2022/05/17 10:44:54;;;;;;;7.80;2.80;;;;;;;26.79;28.06;100332.75;124779;1099;104307;-79
2022/05/17 10:48:00;;;;;;;5.93;2.80;;;;;;;27.08;27.96;100329.02;124758;1099;104262;-78
2022/05/17 10:50:47;;;;;;;10.33;2.53;;;;;;;27.14;27.89;100328.80;125229;1099;103855;-78
2022/05/17 10:53:43;;;;;;;7.57;2.57;;;;;;;27.03;27.79;100336.39;125024;1099;107680;-78
2022/05/17 10:56:30;;;;;;;10.27;3.20;;;;;;;26.47;27.51;100322.08;124732;1099;104204;-78
2022/05/17 10:59:25;;;;;;;10.60;3.20;;;;;;;26.22;27.31;100329.20;125315;1099;103200;-77
2022/05/17 11:02:43;;;;;;;7.07;2.73;;;;;;;26.14;28.18;100326.75;124988;1099;104219;-77
2022/05/17 11:05:46;;;;;;;6.20;2.60;;;;;;;26.13;27.70;100320.51;125651;1099;102424;-76
2022/05/17 11:08:26;;;;;;;7.03;3.00;;;;;;;25.95;27.75;100324.60;125220;1099;101805;-76
2022/05/17 11:11:07;;;;;;;7.97;2.77;;;;;;;25.82;28.32;100315.14;124927;1099;104261;-77
2022/05/17 11:13:46;;;;;;;7.07;2.60;;;;;;;25.90;28.13;100314.91;124600;1099;104250;-78
2022/05/17 11:16:30;;;;;;;7.57;2.90;;;;;;;25.85;27.75;100317.73;125076;1099;102388;-77
2022/05/17 11:19:12;;;;;;;5.20;2.70;;;;;;;25.67;28.31;100310.26;124832;1099;104398;-77
2022/05/17 11:21:52;;;;;;;5.67;2.80;;;;;;;25.69;28.12;100311.95;124701;1099;104256;-77
2022/05/17 11:24:53;;;;;;;8.40;2.97;;;;;;;25.59;28.33;100315.86;124723;1102;102909;-78
2022/05/17 11:27:44;;;;;;;6.17;2.87;;;;;;;25.45;28.20;100306.38;125759;1099;104162;-78
2022/05/17 11:30:38;;;;;;;6.73;2.50;;;;;;;25.27;28.51;100312.23;125117;1099;104166;-78
2022/05/17 11:33:39;;;;;;;5.60;2.70;;;;;;;25.14;28.56;100308.16;125924;1099;104303;-78
2022/05/17 11:36:45;;;;;;;5.27;2.70;;;;;;;25.07;29.08;100305.64;125404;1099;102340;-78
2022/05/17 11:39:53;;;;;;;8.30;2.90;;;;;;;25.18;29.06;100307.12;125691;1099;102457;-77
2022/05/17 11:46:34;;;;;;;8.87;3.07;;;;;;;25.68;29.23;100298.56;125941;1099;102482;-80
2022/05/17 11:49:45;;;;;;;5.97;2.80;;;;;;;25.77;28.76;100303.66;126473;1099;104234;-77
2022/05/17 11:56:48;;;;;;;;;;;;;;;;;;;;;
2022/05/17 12:04:00;;;;;;;6.53;2.93;;;;;;;25.73;28.63;100280.52;125680;1102;101942;-77
2022/05/17 12:11:07;;;;;;;8.75;2.62;;;;;;;25.68;28.96;100272.59;125125;1106;102873;-77
2022/05/17 12:14:12;;;;;;;;;;;;;;;;;;;;;
2022/05/17 12:17:07;;;;;;;8.17;2.50;;;;;;;25.80;29.11;100264.16;125539;1105;109356;-79
2022/05/17 12:20:17;;;;;;;6.37;2.67;;;;;;;26.10;29.20;100258.77;125117;1105;102248;-76
2022/05/17 12:23:33;;;;;;;5.20;2.40;;;;;;;26.44;28.60;100252.23;125125;1109;103169;-77
2022/05/17 12:33:09;;;;;;;8.77;2.97;;;;;;;26.26;28.13;100244.82;124739;1109;104343;-78
2022/05/17 12:36:15;;;;;;;7.92;2.98;;;;;;;26.22;28.67;100244.02;124845;1109;102864;-79
2022/05/17 12:45:45;;;;;;;9.87;2.83;;;;;;;26.11;28.65;100221.99;124531;1109;102318;-80
2022/05/17 12:48:42;;;;;;;8.77;3.10;;;;;;;26.04;28.41;100229.39;125057;1106;104238;-80
2022/05/17 12:51:20;;;;;;;7.93;2.73;;;;;;;25.98;28.55;100229.59;125187;1102;104281;-78
2022/05/17 12:54:03;;;;;;;6.93;2.90;;;;;;;26.02;28.60;100228.53;125534;1103;104319;-79
2022/05/17 12:56:59;;;;;;;6.17;2.70;;;;;;;26.22;28.69;100209.06;125607;1102;102514;-82
2022/05/17 12:59:38;;;;;;;11.30;2.63;;;;;;;26.46;28.12;100212.73;125113;1102;101837;-77
2022/05/17 13:02:21;;;;;;;8.87;3.27;;;;;;;26.75;27.95;100213.53;125086;1099;104265;-79
2022/05/17 13:04:58;;;;;;;9.47;2.93;;;;;;;27.03;28.39;100215.22;125222;1099;102158;-79
2022/05/17 13:07:36;;;;;;;5.80;2.47;;;;;;;27.14;27.56;100206.75;125345;1099;103070;-78
2022/05/17 13:10:10;;;;;;;5.40;2.73;;;;;;;27.17;28.00;100202.11;125179;1099;104428;-77
2022/05/17 13:12:47;;;;;;;5.00;2.40;;;;;;;27.14;27.60;100209.44;124706;1099;104660;-79
2022/05/17 13:15:18;;;;;;;9.40;2.47;;;;;;;27.08;27.83;100202.46;125061;1099;104146;-78
2022/05/17 13:18:04;;;;;;;9.65;2.90;;;;;;;26.96;27.27;100201.12;125087;1099;104352;-78
2022/05/17 13:20:40;;;;;;;7.40;2.90;;;;;;;26.85;27.16;100197.95;125088;1099;104386;-78
2022/05/17 13:23:33;;;;;;;7.33;3.20;;;;;;;26.75;27.39;100189.31;125342;1102;104220;-77
2022/05/17 13:29:31;;;;;;;10.37;2.67;;;;;;;26.98;27.28;100190.30;125414;1102;102803;-78
2022/05/17 13:32:10;;;;;;;8.10;2.60;;;;;;;27.06;27.31;100183.67;125285;1102;104178;-78
2022/05/17 13:35:14;;;;;;;7.90;2.73;;;;;;;27.06;26.92;100178.28;125376;1103;102044;-78
2022/05/17 13:38:06;;;;;;;6.70;2.73;;;;;;;27.11;26.86;100175.41;124908;1102;104345;-78
2022/05/17 13:40:56;;;;;;;4.80;2.73;;;;;;;27.13;27.17;100180.74;124757;1102;104506;-79
2022/05/17 13:46:54;;;;;;;8.00;2.90;;;;;;;27.00;26.41;100174.95;125471;1102;104163;-77
2022/05/17 13:50:02;;;;;;;5.50;2.57;;;;;;;26.94;26.53;100159.89;125351;1103;102859;-77
2022/05/17 13:53:25;;;;;;;5.08;2.50;;;;;;;26.78;26.21;100159.59;125475;1102;104280;-79
2022/05/17 13:56:37;;;;;;;3.83;2.47;;;;;;;26.58;26.36;100164.80;125426;1102;104243;-77
2022/05/17 14:03:03;;;;;;;6.60;2.40;;;;;;;26.37;26.40;100156.57;125459;1102;104165;-76
2022/05/17 14:14:00;;;;;;;7.63;2.50;;;;;;;26.23;26.36;100148.11;125084;1105;104273;-79
2022/05/17 14:16:32;;;;;;;4.67;2.43;;;;;;;26.21;26.60;100153.54;124491;1105;104204;-78
2022/05/17 14:19:30;;;;;;;3.87;2.23;;;;;;;26.08;26.54;100147.69;124630;1106;102408;-79
2022/05/17 14:22:27;;;;;;;;;;;;;;;;;;;;;
2022/05/17 14:25:30;;;;;;;6.47;2.60;;;;;;;25.81;26.73;100136.91;125246;1105;104456;-76
2022/05/17 14:28:08;;;;;;;4.27;2.20;;;;;;;25.75;26.62;100139.79;125129;1105;104133;-77
2022/05/17 14:30:52;;;;;;;5.55;2.70;;;;;;;25.70;26.51;100139.07;125119;1105;102183;-79
2022/05/17 14:33:56;;;;;;;6.35;2.80;;;;;;;25.71;26.57;100137.25;125449;1102;102099;-77
2022/05/17 14:37:02;;;;;;;9.73;2.73;;;;;;;25.79;26.90;100128.02;125445;1103;104626;-77
2022/05/17 14:40:02;;;;;;;4.47;2.40;;;;;;;25.96;27.19;100126.56;125381;1102;104134;-77
2022/05/17 15:08:57;;;;;;;7.30;2.70;;;;;;;25.41;26.34;100094.34;124791;1109;102006;-78
2022/05/17 15:15:18;;;;;;;6.90;2.33;;;;;;;25.40;26.32;100080.05;123943;1112;104188;-78
2022/05/17 15:29:18;;;;;;;3.80;2.17;;;;;;;25.14;26.49;100071.91;124321;1109;119563;-77
2022/05/17 15:38:48;;;;;;;5.93;2.30;;;;;;;24.99;26.58;100078.63;124076;1109;104291;-77
2022/05/17 16:04:54;;;;;;;8.43;2.70;;;;;;;24.57;27.49;100058.39;124847;1102;104599;-77
2022/05/17 16:14:29;;;;;;;10.17;2.70;;;;;;;24.29;27.70;100069.86;125048;1105;104455;-76
2022/05/17 16:21:39;;;;;;;9.80;2.87;;;;;;;24.15;27.92;100069.38;125429;1102;104178;-77
2022/05/17 16:24:25;;;;;;;5.77;2.70;;;;;;;24.07;28.14;100061.53;124512;1103;104291;-76
2022/05/17 16:31:29;;;;;;;10.33;3.37;;;;;;;23.86;28.49;100071.91;124688;1105;102412;-76
2022/05/17 16:34:08;;;;;;;4.40;2.80;;;;;;;23.77;28.93;100068.56;124422;1105;103635;-75
2022/05/17 16:40:45;;;;;;;11.43;2.77;;;;;;;23.60;28.80;100056.47;124638;1109;103364;-75
2022/05/17 16:59:19;;;;;;;8.73;3.10;;;;;;;23.19;29.91;100055.69;124121;1111;102081;-75
2022/05/17 17:16:42;;;;;;;8.68;3.65;;;;;;;23.14;30.31;100073.66;125304;1102;102243;-75
2022/05/17 17:22:18;;;;;;;10.57;3.10;;;;;;;22.91;31.50;100083.02;124496;1105;104278;-75
2022/05/17 17:24:52;;;;;;;8.33;3.20;;;;;;;22.79;31.61;100088.64;124420;1102;104166;-75
2022/05/17 17:27:30;;;;;;;10.53;3.43;;;;;;;22.66;32.73;100097.81;124567;1102;107044;-76
2022/05/17 17:30:15;;;;;;;10.80;3.70;;;;;;;22.46;32.99;100101.79;124652;1105;104163;-75
2022/05/17 17:39:19;;;;;;;8.53;3.13;;;;;;;21.88;35.04;100114.40;124643;1105;104230;-75
2022/05/17 17:42:24;;;;;;;7.07;3.23;;;;;;;21.72;36.08;100135.11;124425;1105;102989;-75
2022/05/17 17:56:56;;;;;;;7.77;3.63;;;;;;;21.06;38.00;100184.95;124501;1112;104198;-75
2022/05/17 18:11:09;;;;;;;11.77;4.20;;;;;;;20.50;39.27;100208.64;124088;1112;102409;-75
2022/05/17 18:18:04;;;;;;;11.20;4.40;;;;;;;20.23;40.78;100204.47;124272;1112;104409;-75
2022/05/17 18:44:18;;;;;;;7.57;3.00;;;;;;;19.90;42.27;100230.47;124693;1102;104348;-76
2022/05/17 19:25:27;;;;;;;4.67;2.70;;;;;;;19.03;44.72;100196.29;124925;1109;104259;-76
2022/05/17 19:35:49;;;;;;;6.07;2.50;;;;;;;19.08;44.60;100177.66;125491;1102;104177;-76
2022/05/17 19:49:21;;;;;;;5.30;2.60;;;;;;;19.11;45.71;100176.77;125105;1109;102019;-76
2022/05/17 19:59:40;;;;;;;5.03;2.70;;;;;;;19.09;45.65;100162.57;124676;1111;104242;-76
2022/05/17 20:18:32;;;;;;;4.13;2.70;;;;;;;19.00;45.68;100148.44;125536;1102;102019;-76
2022/05/17 20:36:18;;;;;;;5.50;2.93;;;;;;;19.02;46.80;100143.98;125168;1109;103793;-76
2022/05/17 21:02:41;;;;;;;;;;;;;;;;;;;;;
2022/05/17 21:19:53;;;;;;;4.63;2.63;;;;;;;18.35;48.18;100174.28;124398;1118;102076;-76
2022/05/17 21:22:52;;;;;;;4.93;2.77;;;;;;;18.38;48.37;100176.06;124498;1115;102407;-76
2022/05/17 21:25:41;;;;;;;6.83;2.87;;;;;;;18.40;48.49;100172.52;124418;1115;102826;-76
2022/05/17 21:58:24;;;;;;;4.50;2.13;;;;;;;18.31;45.47;100173.41;125575;1102;104177;-75
2022/05/17 22:01:37;;;;;;;4.15;2.10;;;;;;;18.33;45.95;100174.28;125549;1105;102149;-77
2022/05/17 22:33:57;;;;;;;2.83;1.17;;;;;;;18.09;42.23;100176.95;127720;1089;103780;-79
2022/05/17 22:36:45;;;;;;;2.63;1.43;;;;;;;18.04;42.20;100171.64;127702;1093;104075;-76
2022/05/17 22:42:36;;;;;;;3.23;1.33;;;;;;;17.99;42.15;100172.55;127708;1089;103137;-77
2022/05/17 22:48:51;;;;;;;5.10;1.60;;;;;;;17.91;41.97;100173.42;127702;1089;102121;-77
2022/05/17 22:51:43;;;;;;;5.40;1.90;;;;;;;17.89;41.91;100169.02;127624;1090;103290;-76
2022/05/17 22:54:39;;;;;;;4.17;1.83;;;;;;;17.86;42.00;100172.51;127696;1089;102122;-76
2022/05/17 23:01:08;;;;;;;2.83;1.70;;;;;;;17.82;41.55;100177.81;127599;1092;102367;-76
2022/05/17 23:04:13;;;;;;;7.00;2.23;;;;;;;17.78;41.41;100177.80;127661;1092;102124;-76
2022/05/17 23:13:59;;;;;;;4.35;1.50;;;;;;;17.75;40.97;100176.93;127190;1095;101888;-78
2022/05/17 23:17:23;;;;;;;3.53;1.83;;;;;;;17.70;40.72;100181.32;127287;1094;102448;-77
2022/05/17 23:31:18;;;;;;;5.13;1.80;;;;;;;17.41;39.78;100187.47;126034;1100;118212;-77
2022/05/17 23:34:54;;;;;;;3.47;1.93;;;;;;;17.34;39.61;100188.32;126003;1102;101970;-78
2022/05/17 23:52:18;;;;;;;12.03;2.20;;;;;;;17.09;39.15;100193.53;126944;1099;101865;-76
2022/05/17 23:59:07;;;;;;;3.90;2.00;;;;;;;16.92;38.59;100201.40;127115;1093;104327;-76
